• Join FlightAware (Why Join?)
  • Login
  • US Flag 
10:39PM EDT


 

Airport Tracker/Info


-or-


 

Live Flight TrackerFlight Track Log ✈ N3026 ✈ 07-May-2013 ✈ KFSM - KDEC

Flight Track Log - Related Links

Times and Time Zones

All times are in EDT time to prevent confusion due to time zone crossing. See the N3026 flight status page for this flight to view local times or setup timezone preferences in your user account.

Time Position Orientation Groundspeed Altitude Reporting Facility
EDT Latitude Longitude Course Direction KTS MPH feet Rate Location/Type
03:13PM 35.4778 -94.3394 39° Northeast 315 362 11,400  Level Memphis Center
03:14PM 35.5408 -94.2633 44° Northeast 327 376 13,500 2,100 Climbing Memphis Center
03:16PM 35.6258 -94.1651 43° Northeast  Level Estimated
03:18PM 35.6741 -93.9592 39° Northeast  Level FlightAware Approximate
03:23PM 35.9724 -93.6304 42° Northeast  Level FlightAware Approximate
03:24PM 36.0300 -93.5626 45° Northeast  Level FlightAware Approximate
03:25PM 36.0879 -93.4954 39° Northeast  Level FlightAware Approximate
03:26PM 36.1482 -93.4313 42° Northeast  Level FlightAware Approximate
03:27PM 36.2071 -93.3650 42° Northeast  Level FlightAware Approximate
03:28PM 36.2647 -93.2971 47° Northeast  Level FlightAware Approximate
03:29PM 36.3201 -93.2265 43° Northeast  Level FlightAware Approximate
03:30PM 36.3781 -93.1589 43° Northeast  Level FlightAware Approximate
03:31PM 36.4364 -93.0918 43° Northeast  Level FlightAware Approximate
03:32PM 36.4950 -93.0248 43° Northeast  Level FlightAware Approximate
03:33PM 36.5533 -92.9575 43° Northeast  Level FlightAware Approximate
03:34PM 36.6114 -92.8899 43° Northeast  Level FlightAware Approximate
03:35PM 36.6695 -92.8222 43° Northeast  Level FlightAware Approximate
03:36PM 36.7275 -92.7544 43° Northeast  Level FlightAware Approximate
03:37PM 36.7855 -92.6865 43° Northeast  Level FlightAware Approximate
03:38PM 36.8433 -92.6183 44° Northeast  Level FlightAware Approximate
03:39PM 36.9009 -92.5497 44° Northeast  Level FlightAware Approximate
03:40PM 36.9584 -92.4811 44° Northeast  Level FlightAware Approximate
03:41PM 37.0159 -92.4123 44° Northeast  Level FlightAware Approximate
03:42PM 37.0734 -92.3434 44° Northeast  Level FlightAware Approximate
03:43PM 37.1308 -92.2744 44° Northeast  Level FlightAware Approximate
03:44PM 37.1882 -92.2053 44° Northeast  Level FlightAware Approximate
03:45PM 37.2455 -92.1361 44° Northeast  Level FlightAware Approximate
03:46PM 37.3028 -92.0668 44° Northeast  Level FlightAware Approximate
03:47PM 37.3601 -91.9974 44° Northeast  Level FlightAware Approximate
03:48PM 37.4173 -91.9279 44° Northeast  Level FlightAware Approximate
03:49PM 37.4745 -91.8583 44° Northeast  Level FlightAware Approximate
03:50PM 37.5316 -91.7885 44° Northeast  Level FlightAware Approximate
03:51PM 37.5887 -91.7187 44° Northeast  Level FlightAware Approximate
03:52PM 37.6457 -91.6488 44° Northeast  Level FlightAware Approximate
03:53PM 37.7028 -91.5787 44° Northeast  Level FlightAware Approximate
03:54PM 37.7597 -91.5086 44° Northeast  Level FlightAware Approximate
03:55PM 37.8169 -91.4386 44° Northeast  Level FlightAware Approximate
03:56PM 37.8741 -91.3686 44° Northeast  Level FlightAware Approximate
03:57PM 37.9312 -91.2985 44° Northeast  Level FlightAware Approximate
03:58PM 37.9882 -91.2282 44° Northeast  Level FlightAware Approximate
03:59PM 38.0453 -91.1579 44° Northeast  Level FlightAware Approximate
04:00PM 38.1023 -91.0874 44° Northeast  Level FlightAware Approximate
04:01PM 38.1592 -91.0168 44° Northeast  Level FlightAware Approximate
04:02PM 38.2161 -90.9462 44° Northeast  Level FlightAware Approximate
04:03PM 38.2730 -90.8754 44° Northeast  Level FlightAware Approximate
04:04PM 38.3298 -90.8045 44° Northeast  Level FlightAware Approximate
04:05PM 38.3866 -90.7335 44° Northeast  Level FlightAware Approximate
04:06PM 38.4428 -90.6617 45° Northeast  Level FlightAware Approximate
04:07PM 38.4988 -90.5896 45° Northeast  Level FlightAware Approximate
04:08PM 38.5582 -90.5224 46° Northeast  Level FlightAware Approximate
04:09PM 38.6132 -90.4488 47° Northeast  Level FlightAware Approximate
04:10PM 38.6677 -90.3746 47° Northeast  Level FlightAware Approximate
04:11PM 38.7221 -90.3004 47° Northeast  Level FlightAware Approximate
04:12PM 38.7765 -90.2260 47° Northeast  Level FlightAware Approximate
04:13PM 38.8382 -90.1618 38° Northeast  Level FlightAware Approximate
04:14PM 38.8941 -90.0895 47° Northeast  Level FlightAware Approximate
04:15PM 38.9484 -90.0148 47° Northeast  Level FlightAware Approximate
04:16PM 39.0057 -89.9443 38° Northeast  Level FlightAware Approximate
04:17PM 39.0607 -89.8706 48° Northeast  Level FlightAware Approximate
04:18PM 39.1139 -89.7945 48° Northeast  Level FlightAware Approximate
04:19PM 39.1696 -89.7214 44° Northeast  Level FlightAware Approximate
04:20PM 39.2272 -89.6507 43° Northeast  Level FlightAware Approximate
04:21PM 39.2833 -89.5795 90° East  Level FlightAware Approximate
04:22PM 39.3327 -89.5033 45° Northeast  Level FlightAware Approximate
04:23PM 39.3891 -89.4308 45° Northeast  Level FlightAware Approximate
04:24PM 39.4470 -89.3603 43° Northeast  Level FlightAware Approximate
04:25PM 39.5054 -89.2903 43° Northeast  Level FlightAware Approximate
04:26PM 39.5637 -89.2202 43° Northeast  Level FlightAware Approximate
04:27PM 39.6103 -89.1372 44° Northeast  Level FlightAware Approximate
04:28PM 39.6676 -89.0657 38° Northeast  Level FlightAware Approximate
04:29PM 39.7250 -88.9944 46° Northeast  Level FlightAware Approximate
04:30PM 39.7749 -88.9140 52° Northeast  Level FlightAware Approximate
04:31PM 39.8333 -88.8500 38° Northeast  Level FlightAware Approximate
04:32PM 39.8346 -88.8657 38° Northeast  Level Estimated
04:33PM 39.8346 -88.8657 38° Northeast  Level Estimated
04:34PM 39.8346 -88.8657 38° Northeast  Level Estimated
04:35PM 39.8346 -88.8657 38° Northeast  Level Estimated
04:36PM 39.8346 -88.8657 38° Northeast  Level Estimated
04:37PM 39.8346 -88.8657 38° Northeast  Level Estimated
04:38PM 39.8346 -88.8657 38° Northeast  Level Estimated
04:39PM 39.8346 -88.8657 38° Northeast  Level Estimated
04:40PM 39.8346 -88.8657 38° Northeast  Level Estimated
04:41PM 39.8346 -88.8657 38° Northeast  Level Estimated
04:42PM 39.8346 -88.8657 38° Northeast  Level Estimated
04:43PM 39.8346 -88.8657 38° Northeast  Level Estimated
04:44PM 39.8346 -88.8657 38° Northeast  Level Estimated
04:45PM 39.8346 -88.8657 38° Northeast  Level Estimated
04:46PM 39.8346 -88.8657 38° Northeast  Level Estimated
04:47PM 39.8346 -88.8657 38° Northeast  Level Estimated